sensor_id;sensor_type;location;lat;lon;timestamp;pressure;altitude;pressure_sealevel;temperature;humidity
77079;BME280;66004;55.096;38.760;2023-04-03T04:46:36;99992.31;;;7.35;67.15
77079;BME280;66004;55.096;38.760;2023-04-03T04:49:02;99992.69;;;7.43;66.92
77079;BME280;66004;55.096;38.760;2023-04-03T04:51:27;99992.41;;;7.53;66.89
77079;BME280;66004;55.096;38.760;2023-04-03T04:53:53;100000.66;;;7.58;66.72
77079;BME280;66004;55.096;38.760;2023-04-03T04:56:18;100003.97;;;7.60;66.61
77079;BME280;66004;55.096;38.760;2023-04-03T04:58:44;99979.56;;;7.52;66.55
77079;BME280;66004;55.096;38.760;2023-04-03T05:01:11;99997.38;;;7.56;66.45
77079;BME280;66004;55.096;38.760;2023-04-03T05:03:36;99997.75;;;7.63;66.68
77079;BME280;66004;55.096;38.760;2023-04-03T05:06:02;99999.56;;;7.68;66.46
77079;BME280;66004;55.096;38.760;2023-04-03T05:08:28;100007.66;;;7.69;66.47
77079;BME280;66004;55.096;38.760;2023-04-03T05:10:53;100003.69;;;7.70;66.49
77079;BME280;66004;55.096;38.760;2023-04-03T05:13:19;100005.72;;;7.78;66.43
77079;BME280;66004;55.096;38.760;2023-04-03T05:15:45;100001.63;;;7.85;66.38
77079;BME280;66004;55.096;38.760;2023-04-03T05:18:11;99998.81;;;7.85;66.22
77079;BME280;66004;55.096;38.760;2023-04-03T05:20:36;100011.09;;;8.06;66.10
77079;BME280;66004;55.096;38.760;2023-04-03T05:23:02;100008.13;;;8.11;65.66
77079;BME280;66004;55.096;38.760;2023-04-03T05:25:28;100011.28;;;8.18;65.60
77079;BME280;66004;55.096;38.760;2023-04-03T05:27:53;100010.47;;;8.27;65.35
77079;BME280;66004;55.096;38.760;2023-04-03T05:30:19;100006.91;;;8.35;65.18
77079;BME280;66004;55.096;38.760;2023-04-03T05:32:44;100003.84;;;8.63;64.82
77079;BME280;66004;55.096;38.760;2023-04-03T05:35:11;100005.00;;;8.79;64.36
77079;BME280;66004;55.096;38.760;2023-04-03T05:37:37;100001.22;;;9.10;63.68
77079;BME280;66004;55.096;38.760;2023-04-03T05:40:05;99997.03;;;9.33;62.92
77079;BME280;66004;55.096;38.760;2023-04-03T05:42:31;99998.00;;;9.55;62.53
77079;BME280;66004;55.096;38.760;2023-04-03T05:44:56;99997.88;;;9.90;61.73
77079;BME280;66004;55.096;38.760;2023-04-03T05:47:22;99993.53;;;10.40;60.86
77079;BME280;66004;55.096;38.760;2023-04-03T05:49:47;100000.94;;;10.65;59.71
77079;BME280;66004;55.096;38.760;2023-04-03T05:52:28;100000.69;;;10.79;59.66
77079;BME280;66004;55.096;38.760;2023-04-03T05:54:55;100005.09;;;10.89;59.57
77079;BME280;66004;55.096;38.760;2023-04-03T05:57:20;100010.88;;;10.93;59.30
77079;BME280;66004;55.096;38.760;2023-04-03T05:59:46;100003.00;;;10.77;59.54
77079;BME280;66004;55.096;38.760;2023-04-03T06:02:23;100005.75;;;10.65;59.99
77079;BME280;66004;55.096;38.760;2023-04-03T06:04:50;100003.16;;;10.60;60.11
77079;BME280;66004;55.096;38.760;2023-04-03T06:07:19;100007.13;;;10.59;60.13
77079;BME280;66004;55.096;38.760;2023-04-03T06:09:46;100007.13;;;10.59;59.58
77079;BME280;66004;55.096;38.760;2023-04-03T06:12:12;100004.31;;;10.59;59.59
77079;BME280;66004;55.096;38.760;2023-04-03T06:14:38;100009.72;;;10.64;59.85
77079;BME280;66004;55.096;38.760;2023-04-03T06:17:03;99991.50;;;10.70;59.03
77079;BME280;66004;55.096;38.760;2023-04-03T06:19:29;100011.94;;;10.79;59.03
77079;BME280;66004;55.096;38.760;2023-04-03T06:21:55;100009.75;;;10.85;59.08
77079;BME280;66004;55.096;38.760;2023-04-03T06:24:21;100015.59;;;11.01;58.86
77079;BME280;66004;55.096;38.760;2023-04-03T06:26:48;100019.78;;;11.16;58.31
77079;BME280;66004;55.096;38.760;2023-04-03T06:29:15;100010.41;;;11.24;58.13
77079;BME280;66004;55.096;38.760;2023-04-03T06:31:40;100014.78;;;11.34;58.05
77079;BME280;66004;55.096;38.760;2023-04-03T06:34:06;100008.47;;;11.37;57.77
77079;BME280;66004;55.096;38.760;2023-04-03T06:36:32;100010.81;;;11.35;58.48
77079;BME280;66004;55.096;38.760;2023-04-03T06:38:58;100003.66;;;11.37;58.09
77079;BME280;66004;55.096;38.760;2023-04-03T06:41:24;99993.91;;;11.35;57.44
77079;BME280;66004;55.096;38.760;2023-04-03T06:43:50;100015.72;;;11.59;57.57
77079;BME280;66004;55.096;38.760;2023-04-03T06:46:18;100020.75;;;11.65;57.69
77079;BME280;66004;55.096;38.760;2023-04-03T06:48:44;100015.50;;;11.76;56.97
77079;BME280;66004;55.096;38.760;2023-04-03T06:51:17;100028.16;;;11.91;57.05
77079;BME280;66004;55.096;38.760;2023-04-03T06:53:43;100023.00;;;12.05;56.86
77079;BME280;66004;55.096;38.760;2023-04-03T06:56:08;100023.22;;;12.13;56.21
77079;BME280;66004;55.096;38.760;2023-04-03T06:58:34;100029.84;;;12.17;56.28
77079;BME280;66004;55.096;38.760;2023-04-03T07:01:01;100027.81;;;12.30;56.22
77079;BME280;66004;55.096;38.760;2023-04-03T07:03:26;100029.84;;;12.41;55.75
77079;BME280;66004;55.096;38.760;2023-04-03T07:05:52;100020.19;;;12.42;54.90
77079;BME280;66004;55.096;38.760;2023-04-03T07:08:18;100031.44;;;12.67;54.35
77079;BME280;66004;55.096;38.760;2023-04-03T07:10:43;100014.97;;;12.81;53.45
77079;BME280;66004;55.096;38.760;2023-04-03T07:13:09;100026.66;;;13.08;52.99
77079;BME280;66004;55.096;38.760;2023-04-03T07:15:34;100029.19;;;13.25;51.99
77079;BME280;66004;55.096;38.760;2023-04-03T07:18:01;100029.84;;;13.47;51.46
77079;BME280;66004;55.096;38.760;2023-04-03T07:20:26;100031.69;;;13.55;51.23
77079;BME280;66004;55.096;38.760;2023-04-03T07:22:52;100038.72;;;13.61;50.78
77079;BME280;66004;55.096;38.760;2023-04-03T07:25:17;100047.81;;;13.55;50.33
77079;BME280;66004;55.096;38.760;2023-04-03T07:27:43;100042.09;;;13.39;50.60
77079;BME280;66004;55.096;38.760;2023-04-03T07:30:09;100022.38;;;13.27;50.74
77079;BME280;66004;55.096;38.760;2023-04-03T07:32:35;100048.13;;;13.66;50.51
77079;BME280;66004;55.096;38.760;2023-04-03T07:35:00;100027.44;;;13.77;50.03
77079;BME280;66004;55.096;38.760;2023-04-03T07:37:26;100041.22;;;13.79;49.75
77079;BME280;66004;55.096;38.760;2023-04-03T07:39:51;100034.47;;;13.68;49.38
77079;BME280;66004;55.096;38.760;2023-04-03T07:42:17;100025.53;;;13.66;49.34
77079;BME280;66004;55.096;38.760;2023-04-03T07:44:43;100029.72;;;13.72;48.83
77079;BME280;66004;55.096;38.760;2023-04-03T07:47:08;100030.72;;;13.79;48.86
77079;BME280;66004;55.096;38.760;2023-04-03T07:49:34;100041.78;;;14.00;48.90
77079;BME280;66004;55.096;38.760;2023-04-03T07:52:03;100041.72;;;14.13;48.10
77079;BME280;66004;55.096;38.760;2023-04-03T07:54:29;100035.78;;;14.18;48.18
77079;BME280;66004;55.096;38.760;2023-04-03T07:56:55;100037.63;;;14.26;47.97
77079;BME280;66004;55.096;38.760;2023-04-03T07:59:21;100039.44;;;14.34;48.19
77079;BME280;66004;55.096;38.760;2023-04-03T08:01:47;100044.06;;;14.43;47.82
77079;BME280;66004;55.096;38.760;2023-04-03T08:04:13;100054.31;;;14.47;47.71
77079;BME280;66004;55.096;38.760;2023-04-03T08:06:38;100045.47;;;14.49;47.14
77079;BME280;66004;55.096;38.760;2023-04-03T08:09:04;100039.63;;;14.41;46.88
77079;BME280;66004;55.096;38.760;2023-04-03T08:11:29;100037.41;;;14.51;46.66
77079;BME280;66004;55.096;38.760;2023-04-03T08:13:56;100048.28;;;14.65;46.81
77079;BME280;66004;55.096;38.760;2023-04-03T08:16:23;100035.88;;;14.69;46.62
77079;BME280;66004;55.096;38.760;2023-04-03T08:18:52;100040.22;;;14.83;46.57
77079;BME280;66004;55.096;38.760;2023-04-03T08:21:17;100045.56;;;14.88;46.44
77079;BME280;66004;55.096;38.760;2023-04-03T08:23:43;100042.00;;;14.91;47.15
77079;BME280;66004;55.096;38.760;2023-04-03T08:26:11;100046.50;;;14.92;47.14
77079;BME280;66004;55.096;38.760;2023-04-03T08:28:37;100040.78;;;14.72;47.31
77079;BME280;66004;55.096;38.760;2023-04-03T08:31:08;100044.19;;;14.62;46.85
77079;BME280;66004;55.096;38.760;2023-04-03T08:33:36;100045.59;;;14.56;46.79
77079;BME280;66004;55.096;38.760;2023-04-03T08:36:06;100039.94;;;14.56;47.23
77079;BME280;66004;55.096;38.760;2023-04-03T08:38:33;100057.50;;;14.77;46.58
77079;BME280;66004;55.096;38.760;2023-04-03T08:41:26;100052.91;;;14.89;46.77
77079;BME280;66004;55.096;38.760;2023-04-03T13:26:57;100011.56;;;14.68;40.02
77079;BME280;66004;55.096;38.760;2023-04-03T13:29:28;100025.13;;;14.78;39.81
77079;BME280;66004;55.096;38.760;2023-04-03T13:31:56;100006.97;;;14.79;39.25
77079;BME280;66004;55.096;38.760;2023-04-03T13:34:24;100009.19;;;14.90;39.26
77079;BME280;66004;55.096;38.760;2023-04-03T13:41:46;100013.13;;;15.21;39.31
77079;BME280;66004;55.096;38.760;2023-04-03T13:46:48;100016.16;;;15.12;39.06
77079;BME280;66004;55.096;38.760;2023-04-03T13:49:22;100016.84;;;15.05;38.86
77079;BME280;66004;55.096;38.760;2023-04-03T13:51:49;100009.44;;;15.01;39.41
77079;BME280;66004;55.096;38.760;2023-04-03T13:54:23;100015.03;;;14.97;39.42
77079;BME280;66004;55.096;38.760;2023-04-03T13:56:54;100014.94;;;14.93;39.69
77079;BME280;66004;55.096;38.760;2023-04-03T14:07:09;99998.63;;;14.87;39.63
77079;BME280;66004;55.096;38.760;2023-04-03T14:09:35;100001.81;;;14.85;39.48
77079;BME280;66004;55.096;38.760;2023-04-03T14:12:29;100003.41;;;14.83;40.05
77079;BME280;66004;55.096;38.760;2023-04-03T14:14:56;100009.06;;;14.83;39.81
77079;BME280;66004;55.096;38.760;2023-04-03T14:17:25;100004.28;;;14.87;39.99
77079;BME280;66004;55.096;38.760;2023-04-03T14:19:52;99999.53;;;14.91;40.20
77079;BME280;66004;55.096;38.760;2023-04-03T14:22:22;99998.78;;;14.94;39.85
77079;BME280;66004;55.096;38.760;2023-04-03T14:24:49;99994.50;;;14.84;40.32
77079;BME280;66004;55.096;38.760;2023-04-03T14:27:22;100001.03;;;14.85;40.62
77079;BME280;66004;55.096;38.760;2023-04-03T14:29:50;99996.75;;;14.75;40.26
77079;BME280;66004;55.096;38.760;2023-04-03T14:32:18;99991.75;;;14.68;40.80
77079;BME280;66004;55.096;38.760;2023-04-03T14:34:44;99984.72;;;14.62;40.71
77079;BME280;66004;55.096;38.760;2023-04-03T14:37:17;99992.09;;;14.67;41.02
77079;BME280;66004;55.096;38.760;2023-04-03T14:39:43;99995.69;;;14.64;40.98
77079;BME280;66004;55.096;38.760;2023-04-03T14:42:16;99986.53;;;14.54;40.95
77079;BME280;66004;55.096;38.760;2023-04-03T14:44:42;100000.81;;;14.58;41.47
77079;BME280;66004;55.096;38.760;2023-04-03T14:47:18;100001.06;;;14.53;41.31
77079;BME280;66004;55.096;38.760;2023-04-03T18:48:09;100061.94;;;9.41;72.17
77079;BME280;66004;55.096;38.760;2023-04-03T18:50:35;100044.28;;;9.31;72.29
77079;BME280;66004;55.096;38.760;2023-04-03T18:53:00;100058.16;;;9.37;72.25
77079;BME280;66004;55.096;38.760;2023-04-03T18:55:26;100056.50;;;9.35;72.34
77079;BME280;66004;55.096;38.760;2023-04-03T18:57:51;100048.91;;;9.27;72.28
77079;BME280;66004;55.096;38.760;2023-04-03T19:00:18;100054.69;;;9.31;72.37
77079;BME280;66004;55.096;38.760;2023-04-03T19:02:44;100045.94;;;9.24;72.84
77079;BME280;66004;55.096;38.760;2023-04-03T19:05:13;100038.16;;;9.21;72.88
77079;BME280;66004;55.096;38.760;2023-04-03T19:07:39;100042.81;;;9.25;72.96
77079;BME280;66004;55.096;38.760;2023-04-03T19:10:06;100039.31;;;9.28;73.17
77079;BME280;66004;55.096;38.760;2023-04-03T19:12:32;100040.34;;;9.32;73.25
77079;BME280;66004;55.096;38.760;2023-04-03T19:14:59;100042.28;;;9.32;73.47
77079;BME280;66004;55.096;38.760;2023-04-03T19:17:24;100038.66;;;9.31;73.49
77079;BME280;66004;55.096;38.760;2023-04-03T19:19:52;100027.09;;;9.24;73.39
77079;BME280;66004;55.096;38.760;2023-04-03T19:22:17;100037.19;;;9.25;73.26
77079;BME280;66004;55.096;38.760;2023-04-03T19:24:43;100023.66;;;9.19;73.36
77079;BME280;66004;55.096;38.760;2023-04-03T19:27:09;100030.94;;;9.20;73.47
77079;BME280;66004;55.096;38.760;2023-04-03T19:29:34;100015.91;;;9.07;73.33
77079;BME280;66004;55.096;38.760;2023-04-03T19:32:00;100021.50;;;9.07;73.26
77079;BME280;66004;55.096;38.760;2023-04-03T19:34:26;100014.91;;;9.03;73.44
77079;BME280;66004;55.096;38.760;2023-04-03T19:36:51;100015.56;;;9.00;73.66
77079;BME280;66004;55.096;38.760;2023-04-03T19:39:16;100014.25;;;8.97;73.24
77079;BME280;66004;55.096;38.760;2023-04-03T19:41:42;100018.53;;;8.94;73.55
77079;BME280;66004;55.096;38.760;2023-04-03T19:44:10;100013.91;;;8.90;73.43
77079;BME280;66004;55.096;38.760;2023-04-03T19:46:36;100004.00;;;8.92;73.62
77079;BME280;66004;55.096;38.760;2023-04-03T19:49:01;100017.38;;;8.87;73.28
77079;BME280;66004;55.096;38.760;2023-04-03T19:51:27;100030.44;;;8.91;73.65
77079;BME280;66004;55.096;38.760;2023-04-03T19:53:52;100023.16;;;8.90;73.54
77079;BME280;66004;55.096;38.760;2023-04-03T19:56:18;100016.72;;;8.90;73.64
77079;BME280;66004;55.096;38.760;2023-04-03T19:58:45;100016.56;;;8.86;73.50
77079;BME280;66004;55.096;38.760;2023-04-03T20:01:18;100022.81;;;8.83;73.67
77079;BME280;66004;55.096;38.760;2023-04-03T20:03:44;100022.00;;;8.83;73.69
77079;BME280;66004;55.096;38.760;2023-04-03T20:06:10;100021.84;;;8.79;73.81
77079;BME280;66004;55.096;38.760;2023-04-03T20:08:35;100018.53;;;8.77;73.99
77079;BME280;66004;55.096;38.760;2023-04-03T20:11:01;100018.88;;;8.67;73.77
77079;BME280;66004;55.096;38.760;2023-04-03T20:13:26;100021.16;;;8.65;74.19
77079;BME280;66004;55.096;38.760;2023-04-03T20:15:52;100024.13;;;8.60;73.92
77079;BME280;66004;55.096;38.760;2023-04-03T20:18:18;100026.44;;;8.57;74.20
77079;BME280;66004;55.096;38.760;2023-04-03T20:20:51;100014.88;;;8.50;74.21
77079;BME280;66004;55.096;38.760;2023-04-03T20:23:18;100019.47;;;8.55;74.21
77079;BME280;66004;55.096;38.760;2023-04-03T20:25:44;100021.47;;;8.54;74.29
77079;BME280;66004;55.096;38.760;2023-04-03T20:28:11;100007.44;;;8.46;74.39
77079;BME280;66004;55.096;38.760;2023-04-03T20:30:38;100010.56;;;8.44;74.36
77079;BME280;66004;55.096;38.760;2023-04-03T20:33:04;100019.50;;;8.46;74.73
77079;BME280;66004;55.096;38.760;2023-04-03T20:35:30;100024.09;;;8.42;74.85
77079;BME280;66004;55.096;38.760;2023-04-03T20:37:56;100022.53;;;8.36;74.78
77079;BME280;66004;55.096;38.760;2023-04-03T20:40:23;100013.13;;;8.32;74.89
77079;BME280;66004;55.096;38.760;2023-04-03T20:42:48;100008.53;;;8.36;74.90
77079;BME280;66004;55.096;38.760;2023-04-03T20:45:16;100019.56;;;8.32;74.98
77079;BME280;66004;55.096;38.760;2023-04-03T20:47:42;100029.97;;;8.32;75.12
